Terminal Aerodrome Forecast
Issued by NWS

Home | Current Version | Previous Version | Text Only | Print | Product List | Glossary On
Versions: 1 2 3 4 5 6 7 8 9 10 11 12 13 14 15 16 17 18 19 20 21 22 23
000
FTUS43 KICT 030536
TAFCNU
TAF
KCNU 030536Z 0306/0406 18015G22KT 2SM -DZ BR OVC004
      TEMPO 0310/0314 3SM BR OVC006
     FM031400 20018G26KT 5SM BR OVC012
     FM031700 22020G28KT P6SM OVC022
     FM032100 35017G25KT P6SM BKN030 OVC250=

USA.gov is the U.S. government's official web portal to all federal, state and local government web resources and services.